createdAt,value
2022-09-23T00:01:26.408Z,0.70
2022-09-23T00:03:56.340Z,0.50
2022-09-23T00:06:25.564Z,1.43
2022-09-23T00:08:53.444Z,0.97
2022-09-23T00:11:23.213Z,0.70
2022-09-23T00:13:53.041Z,0.60
2022-09-23T00:16:23.494Z,0.67
2022-09-23T00:18:51.212Z,0.70
2022-09-23T00:21:22.940Z,2.00
2022-09-23T00:23:50.642Z,1.77
2022-09-23T00:26:20.492Z,2.20
2022-09-23T00:28:49.554Z,2.40
2022-09-23T00:31:19.713Z,1.60
2022-09-23T00:33:47.722Z,1.60
2022-09-23T00:36:17.300Z,1.23
2022-09-23T00:38:46.903Z,1.77
2022-09-23T00:41:16.266Z,2.07
2022-09-23T00:43:46.782Z,1.80
2022-09-23T00:46:18.697Z,1.30
2022-09-23T00:48:47.544Z,1.30
2022-09-23T00:51:19.560Z,1.73
2022-09-23T00:53:51.295Z,2.33
2022-09-23T00:56:23.875Z,2.17
2022-09-23T00:58:52.598Z,1.87
2022-09-23T01:01:21.835Z,1.67
2022-09-23T01:03:51.238Z,1.73
2022-09-23T01:06:20.457Z,2.10
2022-09-23T01:08:50.110Z,1.73
2022-09-23T01:11:31.887Z,2.47
2022-09-23T01:14:08.144Z,1.50
2022-09-23T01:16:42.736Z,0.83
2022-09-23T01:19:29.886Z,0.77
2022-09-23T01:22:06.063Z,0.60
2022-09-23T01:24:45.662Z,1.60
2022-09-23T01:27:25.172Z,1.80
2022-09-23T01:30:12.135Z,1.30
2022-09-23T01:32:50.173Z,1.50
2022-09-23T01:35:26.508Z,2.00
2022-09-23T01:38:01.102Z,1.40
2022-09-23T01:40:34.864Z,1.10
2022-09-23T01:43:09.702Z,1.33
2022-09-23T01:45:43.882Z,1.50
2022-09-23T01:48:19.003Z,1.47
2022-09-23T01:50:59.413Z,2.00
2022-09-23T01:53:36.677Z,2.03
2022-09-23T01:56:10.147Z,1.83
2022-09-23T01:58:43.623Z,2.40
2022-09-23T02:01:16.680Z,1.70
2022-09-23T02:03:52.479Z,2.60
2022-09-23T02:06:23.511Z,3.57
2022-09-23T02:08:56.492Z,2.27
2022-09-23T02:11:25.384Z,4.93
2022-09-23T02:13:55.590Z,2.50
2022-09-23T02:16:29.832Z,3.33
2022-09-23T02:19:04.949Z,2.53
2022-09-23T02:21:36.370Z,3.33
2022-09-23T02:24:11.807Z,3.37
2022-09-23T02:26:45.812Z,3.83
2022-09-23T02:29:21.879Z,3.47
2022-09-23T02:32:01.557Z,4.50
2022-09-23T02:34:42.094Z,2.00
2022-09-23T02:37:22.992Z,1.60
2022-09-23T02:39:59.352Z,1.43
2022-09-23T02:42:35.427Z,1.40
2022-09-23T02:45:03.698Z,1.30
2022-09-23T02:47:35.228Z,1.70
2022-09-23T02:50:05.067Z,1.37
2022-09-23T02:52:33.452Z,1.43
2022-09-23T02:55:02.084Z,1.50
2022-09-23T02:57:29.832Z,2.07
2022-09-23T02:59:58.770Z,1.40
2022-09-23T03:02:44.499Z,1.80
2022-09-23T03:05:23.896Z,2.40
2022-09-23T03:08:04.411Z,2.07
2022-09-23T03:10:42.383Z,2.70
2022-09-23T03:13:19.047Z,1.13
2022-09-23T03:15:57.237Z,1.93
2022-09-23T03:18:31.567Z,2.03
2022-09-23T03:21:07.308Z,2.90
2022-09-23T03:23:37.559Z,2.20
2022-09-23T03:26:12.173Z,3.03
2022-09-23T03:28:43.702Z,2.43
2022-09-23T03:31:13.802Z,2.00
2022-09-23T03:33:44.375Z,2.80
2022-09-23T03:36:36.288Z,2.77
2022-09-23T03:39:09.179Z,2.27
2022-09-23T03:41:43.294Z,2.93
2022-09-23T03:44:12.332Z,2.07
2022-09-23T03:46:40.460Z,2.80
2022-09-23T03:49:15.571Z,1.97
2022-09-23T03:51:44.941Z,2.33
2022-09-23T03:54:13.283Z,2.80
2022-09-23T03:56:40.971Z,2.70
2022-09-23T03:59:09.203Z,3.37
2022-09-23T04:01:37.563Z,2.77
2022-09-23T04:04:05.333Z,3.40
2022-09-23T04:06:33.424Z,2.70
2022-09-23T04:09:02.644Z,3.03
2022-09-23T04:11:30.980Z,2.50
2022-09-23T04:13:58.974Z,2.80
2022-09-23T04:16:27.443Z,2.13
2022-09-23T04:18:55.221Z,1.83
2022-09-23T04:21:23.691Z,1.73
2022-09-23T04:23:51.432Z,1.83
2022-09-23T04:26:21.215Z,1.97
2022-09-23T04:28:48.883Z,1.50
2022-09-23T04:31:17.005Z,1.40
2022-09-23T04:33:44.774Z,1.90
2022-09-23T04:36:13.155Z,1.67
2022-09-23T04:38:40.834Z,1.67
2022-09-23T04:41:09.752Z,1.00
2022-09-23T04:43:39.697Z,1.20
2022-09-23T04:46:09.978Z,1.67
2022-09-23T04:48:38.986Z,1.03
2022-09-23T04:51:08.611Z,1.13
2022-09-23T04:53:37.355Z,1.30
2022-09-23T04:56:07.291Z,1.20
2022-09-23T04:58:34.983Z,1.77
2022-09-23T05:01:11.975Z,1.37
2022-09-23T05:03:40.842Z,1.50
2022-09-23T05:06:08.899Z,1.20
2022-09-23T05:08:36.857Z,1.47
2022-09-23T05:11:05.889Z,1.90
2022-09-23T05:13:35.312Z,2.37
2022-09-23T05:16:06.223Z,1.83
2022-09-23T05:18:36.583Z,1.20
2022-09-23T05:21:05.419Z,1.73
2022-09-23T05:23:33.316Z,2.13
2022-09-23T05:26:02.921Z,1.40
2022-09-23T05:28:32.911Z,1.23
2022-09-23T05:31:04.499Z,1.43
2022-09-23T05:33:32.498Z,1.77
2022-09-23T05:36:02.311Z,2.10
2022-09-23T05:38:30.625Z,2.13
2022-09-23T05:40:59.418Z,1.73
2022-09-23T05:43:27.502Z,2.27
2022-09-23T05:46:07.188Z,1.73
2022-09-23T05:48:37.193Z,2.73
2022-09-23T05:51:09.120Z,2.70
2022-09-23T05:53:38.133Z,3.00
2022-09-23T05:56:06.680Z,2.60
2022-09-23T05:58:34.384Z,2.60
2022-09-23T06:01:02.362Z,2.57
2022-09-23T06:03:30.093Z,2.40
2022-09-23T06:05:58.444Z,2.03
2022-09-23T06:08:27.846Z,2.70
2022-09-23T06:10:56.460Z,1.77
2022-09-23T06:13:24.459Z,2.50
2022-09-23T06:15:52.895Z,3.10
2022-09-23T06:18:20.740Z,2.53
2022-09-23T06:20:48.842Z,2.37
2022-09-23T06:23:16.494Z,3.40
2022-09-23T06:25:45.506Z,2.70
2022-09-23T06:28:13.189Z,2.27
2022-09-23T06:30:41.250Z,2.77
2022-09-23T06:33:10.025Z,2.40
2022-09-23T06:35:37.731Z,2.37
2022-09-23T06:38:05.962Z,2.73
2022-09-23T06:40:34.306Z,3.53
2022-09-23T06:43:03.441Z,2.97
2022-09-23T06:45:31.409Z,2.60
2022-09-23T06:47:59.475Z,3.30
2022-09-23T06:50:29.460Z,4.07
2022-09-23T06:52:58.401Z,2.97
2022-09-23T06:55:28.790Z,4.47
2022-09-23T06:57:58.958Z,5.13
2022-09-23T07:00:29.176Z,3.33
2022-09-23T07:02:57.006Z,2.80
2022-09-23T07:05:25.362Z,3.23
2022-09-23T07:07:53.351Z,3.83
2022-09-23T07:10:21.654Z,3.50
2022-09-23T07:12:49.320Z,3.77
2022-09-23T07:15:17.792Z,4.23
2022-09-23T07:17:46.875Z,3.50
2022-09-23T07:20:14.586Z,3.07
2022-09-23T07:22:42.252Z,2.80
2022-09-23T07:25:12.679Z,3.90
2022-09-23T07:27:40.349Z,3.57
2022-09-23T07:30:18.442Z,2.90
2022-09-23T07:32:50.852Z,3.27
2022-09-23T07:35:19.350Z,3.50
2022-09-23T07:37:47.127Z,3.27
2022-09-23T07:40:15.465Z,3.40
2022-09-23T07:42:43.172Z,2.30
2022-09-23T07:45:10.986Z,2.50
2022-09-23T07:47:39.998Z,2.30
2022-09-23T07:50:11.771Z,2.10
2022-09-23T07:52:40.131Z,2.37
2022-09-23T07:55:08.659Z,2.40
2022-09-23T07:57:36.400Z,3.27
2022-09-23T08:00:06.493Z,3.13
2022-09-23T08:02:39.428Z,2.90
2022-09-23T08:05:09.491Z,2.17
2022-09-23T08:07:37.220Z,2.03
2022-09-23T08:10:07.911Z,2.80
2022-09-23T08:12:35.643Z,5.70
2022-09-23T08:15:04.602Z,3.30
2022-09-23T08:17:32.286Z,3.30
2022-09-23T08:20:00.350Z,3.33
2022-09-23T08:22:29.770Z,2.83
2022-09-23T08:24:58.676Z,2.93
2022-09-23T08:27:28.040Z,3.10
2022-09-23T08:29:56.584Z,3.63
2022-09-23T08:32:24.822Z,3.37
2022-09-23T08:34:53.229Z,2.83
2022-09-23T08:37:20.886Z,3.60
2022-09-23T08:39:49.945Z,4.03
2022-09-23T08:42:23.011Z,2.77
2022-09-23T08:44:55.044Z,3.23
2022-09-23T08:47:25.882Z,3.80
2022-09-23T08:50:02.872Z,3.63
2022-09-23T08:52:35.611Z,3.40
2022-09-23T08:55:07.428Z,3.87
2022-09-23T08:57:46.013Z,3.53
2022-09-23T09:00:24.619Z,3.07
2022-09-23T09:02:52.478Z,5.30
2022-09-23T09:05:26.185Z,3.43
2022-09-23T09:07:56.553Z,3.47
2022-09-23T09:10:30.905Z,4.20
2022-09-23T09:13:04.408Z,4.00
2022-09-23T09:15:37.367Z,2.93
2022-09-23T09:18:07.658Z,3.87
2022-09-23T09:20:41.522Z,5.03
2022-09-23T09:23:21.923Z,4.17
2022-09-23T09:25:52.499Z,5.17
2022-09-23T09:28:24.588Z,4.07
2022-09-23T09:30:57.237Z,3.80
2022-09-23T09:33:30.485Z,3.90
2022-09-23T09:36:09.340Z,3.43
2022-09-23T09:38:37.531Z,2.63
2022-09-23T09:41:16.634Z,2.90
2022-09-23T09:43:49.183Z,3.13
2022-09-23T09:46:29.331Z,2.70
2022-09-23T09:49:02.071Z,2.17
2022-09-23T09:51:30.390Z,3.03
2022-09-23T09:54:18.522Z,2.47
2022-09-23T09:59:26.666Z,1.97
2022-09-23T10:02:13.994Z,1.47
2022-09-23T10:04:42.564Z,2.33
2022-09-23T10:07:14.620Z,3.10
2022-09-23T10:09:51.270Z,1.47
2022-09-23T10:12:22.052Z,2.30
2022-09-23T10:14:52.134Z,1.00
2022-09-23T10:17:22.760Z,1.53
2022-09-23T10:19:58.398Z,1.27
2022-09-23T10:22:29.896Z,1.37
2022-09-23T10:25:03.236Z,0.80
2022-09-23T10:27:35.778Z,1.20
2022-09-23T10:30:06.500Z,1.47
2022-09-23T10:32:37.324Z,1.20
2022-09-23T10:35:15.090Z,0.90
2022-09-23T10:37:46.099Z,1.20
2022-09-23T10:40:37.808Z,1.40
2022-09-23T10:43:37.871Z,1.30
2022-09-23T10:46:26.372Z,3.47
2022-09-23T10:49:12.185Z,3.57
2022-09-23T10:51:48.667Z,3.80
2022-09-23T10:54:29.491Z,4.00
2022-09-23T10:57:23.003Z,3.33
2022-09-23T11:00:03.154Z,4.07
2022-09-23T11:02:49.778Z,3.70
2022-09-23T11:05:38.733Z,2.67
2022-09-23T11:08:21.813Z,3.83
2022-09-23T11:10:58.553Z,3.20
2022-09-23T11:13:43.474Z,3.60
2022-09-23T11:16:25.646Z,3.97
2022-09-23T11:19:15.613Z,3.00
2022-09-23T11:21:59.148Z,3.40
2022-09-23T11:24:52.119Z,3.57
2022-09-23T11:27:33.484Z,2.97
2022-09-23T11:30:09.161Z,3.33
2022-09-23T11:33:19.525Z,2.93
2022-09-23T11:35:50.790Z,1.77
2022-09-23T11:38:25.908Z,3.00
2022-09-23T11:40:58.575Z,2.10
2022-09-23T11:43:29.263Z,2.50
2022-09-23T11:46:00.516Z,3.47
2022-09-23T11:48:35.057Z,2.87
2022-09-23T11:51:06.015Z,4.33
2022-09-23T11:53:41.731Z,3.37
2022-09-23T11:56:27.239Z,2.40
2022-09-23T11:59:11.119Z,3.50
2022-09-23T12:01:46.007Z,3.67
2022-09-23T12:04:24.038Z,2.10
2022-09-23T12:06:57.946Z,2.57
2022-09-23T12:09:56.891Z,3.10
2022-09-23T12:12:28.255Z,3.30
2022-09-23T12:15:02.765Z,5.17
2022-09-23T12:17:58.035Z,2.83
2022-09-23T12:21:02.375Z,2.20
2022-09-23T12:23:47.789Z,1.80
2022-09-23T12:26:19.058Z,2.87
2022-09-23T12:28:49.995Z,2.50
2022-09-23T12:31:21.584Z,2.60
2022-09-23T12:33:50.947Z,2.87
2022-09-23T12:36:27.833Z,2.13
2022-09-23T12:39:02.730Z,2.33
2022-09-23T12:41:35.674Z,2.57
2022-09-23T12:44:16.687Z,6.00
2022-09-23T12:46:46.427Z,2.07
2022-09-23T12:49:26.181Z,2.87
2022-09-23T12:52:25.400Z,2.87
2022-09-23T12:54:57.475Z,2.33
2022-09-23T12:57:42.891Z,3.27
2022-09-23T13:00:28.076Z,1.77
2022-09-23T13:03:17.575Z,2.80
2022-09-23T13:06:08.872Z,6.57
2022-09-23T13:08:40.379Z,1.73
2022-09-23T13:11:20.719Z,2.77
2022-09-23T13:13:50.901Z,2.70
2022-09-23T13:16:24.018Z,2.57
2022-09-23T13:18:54.111Z,3.33
2022-09-23T13:21:58.175Z,6.17
2022-09-23T13:24:40.636Z,2.40
2022-09-23T13:27:16.214Z,2.30
2022-09-23T13:29:48.107Z,1.67
2022-09-23T13:32:18.640Z,1.87
2022-09-23T13:34:56.071Z,2.37
2022-09-23T13:37:26.044Z,2.37
2022-09-23T13:40:09.046Z,1.73
2022-09-23T13:42:40.601Z,5.30
2022-09-23T13:45:16.885Z,1.80
2022-09-23T13:47:46.522Z,5.27
2022-09-23T13:50:19.630Z,2.93
2022-09-23T13:52:52.105Z,2.00
2022-09-23T13:55:31.824Z,2.33
2022-09-23T13:58:05.577Z,1.73
2022-09-23T14:00:37.038Z,1.93
2022-09-23T14:03:17.996Z,2.13
2022-09-23T14:05:47.483Z,2.20
2022-09-23T14:08:15.574Z,2.27
2022-09-23T14:10:46.522Z,1.90
2022-09-23T14:13:21.346Z,4.67
2022-09-23T14:15:56.289Z,1.90
2022-09-23T14:18:31.607Z,2.20
2022-09-23T14:21:00.155Z,2.33
2022-09-23T14:23:28.156Z,2.07
2022-09-23T14:25:59.238Z,2.43
2022-09-23T14:28:28.669Z,1.97
2022-09-23T14:30:58.816Z,2.20
2022-09-23T14:33:29.214Z,1.90
2022-09-23T14:36:06.840Z,3.23
2022-09-23T14:38:52.309Z,1.90
2022-09-23T14:41:25.187Z,2.33
2022-09-23T14:43:57.158Z,1.23
2022-09-23T14:46:27.570Z,2.33
2022-09-23T14:49:01.944Z,2.20
2022-09-23T14:51:33.732Z,2.27
2022-09-23T14:54:24.291Z,2.00
2022-09-23T14:56:56.036Z,1.80
2022-09-23T14:59:28.854Z,4.37
2022-09-23T15:01:57.257Z,2.13
2022-09-23T15:04:35.358Z,1.83
2022-09-23T15:07:09.764Z,1.73
2022-09-23T15:09:40.459Z,1.87
2022-09-23T15:12:16.137Z,1.67
2022-09-23T15:14:47.235Z,2.23
2022-09-23T15:17:26.670Z,1.40
2022-09-23T15:19:58.171Z,1.70
2022-09-23T15:22:27.329Z,1.63
2022-09-23T15:25:08.965Z,1.70
2022-09-23T15:27:38.379Z,1.63
2022-09-23T15:30:16.219Z,8.17
2022-09-23T15:32:44.354Z,2.30
2022-09-23T15:35:16.778Z,1.27
2022-09-23T15:37:46.560Z,1.43
2022-09-23T15:40:20.885Z,2.30
2022-09-23T15:42:52.589Z,1.57
2022-09-23T15:45:22.166Z,2.87
2022-09-23T15:47:52.044Z,2.70
2022-09-23T15:50:20.184Z,1.40
2022-09-23T15:52:48.328Z,2.23
2022-09-23T15:55:17.737Z,1.83
2022-09-23T15:57:46.009Z,1.40
2022-09-23T16:00:16.054Z,2.17
2022-09-23T16:02:46.961Z,3.07
2022-09-23T16:05:22.227Z,1.80
2022-09-23T16:07:52.613Z,2.00
2022-09-23T16:10:22.521Z,1.60
2022-09-23T16:12:50.546Z,1.13
2022-09-23T16:15:22.029Z,1.73
2022-09-23T16:17:50.170Z,1.60
2022-09-23T16:20:18.661Z,2.57
2022-09-23T16:22:53.192Z,2.47
2022-09-23T16:25:21.502Z,1.50
2022-09-23T16:27:50.365Z,1.50
2022-09-23T16:30:19.441Z,1.40
2022-09-23T16:32:47.150Z,0.90
2022-09-23T16:35:16.618Z,1.23
2022-09-23T16:37:47.362Z,0.90
2022-09-23T16:40:19.817Z,1.50
2022-09-23T16:42:48.273Z,1.57
2022-09-23T16:45:18.015Z,2.27
2022-09-23T16:47:49.366Z,2.37
2022-09-23T16:50:20.150Z,1.63
2022-09-23T16:52:48.229Z,2.23
2022-09-23T16:55:17.252Z,2.40
2022-09-23T16:57:45.223Z,1.97
2022-09-23T17:00:33.036Z,1.57
2022-09-23T17:03:21.027Z,1.67
2022-09-23T17:05:49.417Z,2.53
2022-09-23T17:08:18.902Z,1.43
2022-09-23T17:10:58.578Z,2.93
2022-09-23T17:13:26.980Z,1.93
2022-09-23T17:15:55.226Z,2.53
2022-09-23T17:18:25.127Z,2.03
2022-09-23T17:21:00.407Z,1.97
2022-09-23T17:23:29.057Z,1.70
2022-09-23T17:25:56.774Z,1.03
2022-09-23T17:28:25.180Z,1.57
2022-09-23T17:30:58.003Z,2.70
2022-09-23T17:33:28.428Z,3.47
2022-09-23T17:35:56.796Z,1.97
2022-09-23T17:38:28.879Z,8.20
2022-09-23T17:41:01.232Z,5.63
2022-09-23T17:43:29.725Z,4.50
2022-09-23T17:46:03.807Z,3.30
2022-09-23T17:48:34.972Z,2.63
2022-09-23T17:51:05.136Z,2.73
2022-09-23T17:53:34.971Z,2.90
2022-09-23T17:56:05.145Z,3.10
2022-09-23T17:58:34.568Z,4.20
2022-09-23T18:01:02.682Z,3.67
2022-09-23T18:03:33.440Z,4.60
2022-09-23T18:06:12.624Z,4.03
2022-09-23T18:08:41.116Z,4.70
2022-09-23T18:11:16.590Z,4.43
2022-09-23T18:13:49.248Z,6.10
2022-09-23T18:16:17.109Z,4.37
2022-09-23T18:18:51.263Z,4.33
2022-09-23T18:21:19.549Z,2.83
2022-09-23T18:23:47.324Z,3.17
2022-09-23T18:26:15.818Z,2.43
2022-09-23T18:28:43.778Z,1.50
2022-09-23T18:31:12.736Z,3.00
2022-09-23T18:33:40.804Z,1.83
2022-09-23T18:36:10.913Z,1.93
2022-09-23T18:38:38.692Z,2.10
2022-09-23T18:41:08.088Z,2.50
2022-09-23T18:43:41.311Z,2.10
2022-09-23T18:46:13.359Z,2.50
2022-09-23T18:48:59.484Z,3.50
2022-09-23T18:51:30.390Z,2.20
2022-09-23T18:53:59.066Z,2.97
2022-09-23T18:56:29.617Z,3.20
2022-09-23T18:58:57.474Z,2.33
2022-09-23T19:01:26.710Z,2.90
2022-09-23T19:03:58.291Z,3.63
2022-09-23T19:06:26.953Z,4.13
2022-09-23T19:08:57.076Z,4.60
2022-09-23T19:11:25.421Z,3.57
2022-09-23T19:13:54.643Z,3.20
2022-09-23T19:16:23.315Z,2.20
2022-09-23T19:18:51.901Z,2.57
2022-09-23T19:21:21.924Z,2.73
2022-09-23T19:23:51.174Z,3.20
2022-09-23T19:26:22.321Z,1.93
2022-09-23T19:28:50.620Z,3.03
2022-09-23T19:31:22.520Z,3.93
2022-09-23T19:33:56.992Z,2.77
2022-09-23T19:36:26.662Z,3.17
2022-09-23T19:38:56.434Z,2.90
2022-09-23T19:41:26.391Z,2.10
2022-09-23T19:43:54.573Z,2.33
2022-09-23T19:46:24.278Z,1.53
2022-09-23T19:48:51.968Z,1.80
2022-09-23T19:51:19.970Z,1.07
2022-09-23T19:53:47.764Z,1.70
2022-09-23T19:56:17.839Z,1.60
2022-09-23T19:58:48.753Z,1.47
2022-09-23T20:01:17.136Z,1.33
2022-09-23T20:03:46.963Z,2.17
2022-09-23T20:06:15.918Z,1.67
2022-09-23T20:08:44.164Z,1.70
2022-09-23T20:11:14.358Z,2.77
2022-09-23T20:13:44.458Z,2.93
2022-09-23T20:16:15.803Z,2.87
2022-09-23T20:18:44.083Z,3.83
2022-09-23T20:21:13.913Z,5.80
2022-09-23T20:23:42.390Z,6.20
2022-09-23T20:26:27.843Z,4.43
2022-09-23T20:28:55.964Z,6.87
2022-09-23T20:31:25.106Z,7.77
2022-09-23T20:33:58.273Z,4.07
2022-09-23T20:36:26.946Z,3.57
2022-09-23T20:38:55.063Z,3.03
2022-09-23T20:41:22.791Z,3.87
2022-09-23T20:43:54.256Z,3.87
2022-09-23T20:46:23.384Z,5.03
2022-09-23T20:48:54.375Z,4.03
2022-09-23T20:51:22.481Z,3.07
2022-09-23T20:53:52.894Z,3.30
2022-09-23T20:56:21.359Z,3.07
2022-09-23T20:58:51.037Z,4.53
2022-09-23T21:01:19.365Z,3.57
2022-09-23T21:03:49.178Z,4.50
2022-09-23T21:06:20.117Z,3.90
2022-09-23T21:08:47.848Z,4.30
2022-09-23T21:11:17.893Z,4.00
2022-09-23T21:13:50.409Z,4.03
2022-09-23T21:16:21.670Z,3.97
2022-09-23T21:18:50.349Z,3.77
2022-09-23T21:21:22.344Z,5.10
2022-09-23T21:23:51.386Z,7.07
2022-09-23T21:26:21.522Z,5.17
2022-09-23T21:28:51.556Z,5.70
2022-09-23T21:31:23.809Z,6.13
2022-09-23T21:33:55.987Z,6.23
2022-09-23T21:36:25.484Z,6.20
2022-09-23T21:38:55.696Z,5.93
2022-09-23T21:41:23.804Z,7.83
2022-09-23T21:43:52.187Z,7.63
2022-09-23T21:46:21.577Z,6.50
2022-09-23T21:48:53.228Z,6.83
2022-09-23T21:51:24.063Z,6.20
2022-09-23T21:53:55.285Z,5.50
2022-09-23T21:56:25.147Z,5.27
2022-09-23T21:58:54.750Z,5.20
2022-09-23T22:01:24.357Z,6.87
2022-09-23T22:03:53.934Z,7.80
2022-09-23T22:06:23.664Z,8.40
2022-09-23T22:08:55.222Z,8.07
2022-09-23T22:11:42.473Z,6.13
2022-09-23T22:14:13.040Z,6.43
2022-09-23T22:16:41.573Z,6.80
2022-09-23T22:19:10.495Z,5.90
2022-09-23T22:21:39.983Z,6.57
2022-09-23T22:24:11.540Z,6.90
2022-09-23T22:26:40.754Z,6.33
2022-09-23T22:29:28.102Z,7.03
2022-09-23T22:32:13.564Z,6.73
2022-09-23T22:34:50.395Z,5.43
2022-09-23T22:37:21.776Z,7.07
2022-09-23T22:39:50.807Z,4.60
2022-09-23T22:42:21.161Z,4.83
2022-09-23T22:44:48.892Z,6.43
2022-09-23T22:47:17.546Z,4.93
2022-09-23T22:49:45.535Z,5.03
2022-09-23T22:52:15.835Z,4.70
2022-09-23T22:54:43.766Z,6.10
2022-09-23T22:57:12.892Z,5.57
2022-09-23T22:59:47.882Z,5.97
2022-09-23T23:02:16.538Z,6.30
2022-09-23T23:04:45.792Z,6.93
2022-09-23T23:07:14.464Z,5.63
2022-09-23T23:09:43.188Z,6.23
2022-09-23T23:12:12.212Z,5.63
2022-09-23T23:14:41.009Z,6.50
2022-09-23T23:17:08.683Z,9.47
2022-09-23T23:19:37.206Z,6.37
2022-09-23T23:22:05.858Z,5.10
2022-09-23T23:24:33.708Z,5.60
2022-09-23T23:27:01.373Z,5.27
2022-09-23T23:29:31.003Z,5.03
2022-09-23T23:31:58.694Z,5.13
2022-09-23T23:34:26.701Z,4.80
2022-09-23T23:36:55.859Z,4.33
2022-09-23T23:39:25.565Z,6.00
2022-09-23T23:41:55.357Z,7.33
2022-09-23T23:44:24.951Z,4.43
2022-09-23T23:46:54.483Z,4.60
2022-09-23T23:49:22.513Z,7.63
2022-09-23T23:51:50.594Z,5.60
2022-09-23T23:54:18.960Z,6.97
2022-09-23T23:56:46.703Z,6.40
2022-09-23T23:59:14.773Z,6.00
